sensor_id;sensor_type;location;lat;lon;timestamp;P1;durP1;ratioP1;P2;durP2;ratioP2
19127;SDS011;9696;53.686;10.094;2022-08-20T00:00:13;25.23;;;16.70;;
19127;SDS011;9696;53.686;10.094;2022-08-20T00:02:45;24.80;;;15.65;;
19127;SDS011;9696;53.686;10.094;2022-08-20T00:05:19;20.98;;;14.45;;
19127;SDS011;9696;53.686;10.094;2022-08-20T00:07:50;24.38;;;14.20;;
19127;SDS011;9696;53.686;10.094;2022-08-20T00:10:20;20.73;;;13.88;;
19127;SDS011;9696;53.686;10.094;2022-08-20T00:12:51;21.83;;;14.07;;
19127;SDS011;9696;53.686;10.094;2022-08-20T00:15:22;22.67;;;14.50;;
19127;SDS011;9696;53.686;10.094;2022-08-20T00:17:54;21.92;;;14.75;;
19127;SDS011;9696;53.686;10.094;2022-08-20T00:20:25;23.65;;;14.18;;
19127;SDS011;9696;53.686;10.094;2022-08-20T00:22:56;19.67;;;13.20;;
19127;SDS011;9696;53.686;10.094;2022-08-20T00:25:26;22.42;;;13.75;;
19127;SDS011;9696;53.686;10.094;2022-08-20T00:27:57;20.60;;;14.65;;
19127;SDS011;9696;53.686;10.094;2022-08-20T00:30:28;20.77;;;13.73;;
19127;SDS011;9696;53.686;10.094;2022-08-20T00:33:00;22.23;;;13.57;;
19127;SDS011;9696;53.686;10.094;2022-08-20T00:35:32;20.30;;;13.27;;
19127;SDS011;9696;53.686;10.094;2022-08-20T00:38:03;22.60;;;14.02;;
19127;SDS011;9696;53.686;10.094;2022-08-20T00:40:34;20.83;;;14.13;;
19127;SDS011;9696;53.686;10.094;2022-08-20T00:43:10;22.38;;;14.07;;
19127;SDS011;9696;53.686;10.094;2022-08-20T00:45:53;23.77;;;13.55;;
19127;SDS011;9696;53.686;10.094;2022-08-20T00:48:23;21.67;;;14.45;;
19127;SDS011;9696;53.686;10.094;2022-08-20T00:50:55;24.40;;;15.85;;
19127;SDS011;9696;53.686;10.094;2022-08-20T00:53:29;29.65;;;16.38;;
19127;SDS011;9696;53.686;10.094;2022-08-20T00:55:59;30.17;;;16.95;;
19127;SDS011;9696;53.686;10.094;2022-08-20T00:58:30;22.75;;;15.55;;
19127;SDS011;9696;53.686;10.094;2022-08-20T01:01:00;26.58;;;15.65;;
19127;SDS011;9696;53.686;10.094;2022-08-20T01:03:30;20.33;;;14.50;;
19127;SDS011;9696;53.686;10.094;2022-08-20T01:05:59;20.13;;;13.27;;
19127;SDS011;9696;53.686;10.094;2022-08-20T01:08:28;19.35;;;13.70;;
19127;SDS011;9696;53.686;10.094;2022-08-20T01:10:58;21.25;;;14.05;;
19127;SDS011;9696;53.686;10.094;2022-08-20T01:13:37;19.25;;;12.88;;
19127;SDS011;9696;53.686;10.094;2022-08-20T01:16:11;18.92;;;13.38;;
19127;SDS011;9696;53.686;10.094;2022-08-20T01:18:46;19.63;;;13.35;;
19127;SDS011;9696;53.686;10.094;2022-08-20T01:21:16;21.67;;;12.80;;
19127;SDS011;9696;53.686;10.094;2022-08-20T01:23:51;22.60;;;13.20;;
19127;SDS011;9696;53.686;10.094;2022-08-20T01:26:28;19.38;;;12.48;;
19127;SDS011;9696;53.686;10.094;2022-08-20T01:29:03;18.83;;;12.82;;
19127;SDS011;9696;53.686;10.094;2022-08-20T01:31:35;15.95;;;10.80;;
19127;SDS011;9696;53.686;10.094;2022-08-20T01:34:07;16.58;;;11.57;;
19127;SDS011;9696;53.686;10.094;2022-08-20T01:36:39;20.27;;;10.60;;
19127;SDS011;9696;53.686;10.094;2022-08-20T01:39:13;17.40;;;10.50;;
19127;SDS011;9696;53.686;10.094;2022-08-20T01:41:48;14.02;;;10.02;;
19127;SDS011;9696;53.686;10.094;2022-08-20T01:44:26;16.67;;;9.55;;
19127;SDS011;9696;53.686;10.094;2022-08-20T01:46:57;14.40;;;9.52;;
19127;SDS011;9696;53.686;10.094;2022-08-20T01:49:38;15.70;;;9.82;;
19127;SDS011;9696;53.686;10.094;2022-08-20T01:52:10;16.75;;;10.60;;
19127;SDS011;9696;53.686;10.094;2022-08-20T01:54:41;17.95;;;10.07;;
19127;SDS011;9696;53.686;10.094;2022-08-20T01:57:14;17.80;;;11.00;;
19127;SDS011;9696;53.686;10.094;2022-08-20T01:59:46;13.35;;;9.35;;
19127;SDS011;9696;53.686;10.094;2022-08-20T02:02:17;16.10;;;10.38;;
19127;SDS011;9696;53.686;10.094;2022-08-20T02:04:47;16.60;;;9.50;;
19127;SDS011;9696;53.686;10.094;2022-08-20T02:07:18;15.63;;;10.57;;
19127;SDS011;9696;53.686;10.094;2022-08-20T02:09:49;15.30;;;10.20;;
19127;SDS011;9696;53.686;10.094;2022-08-20T02:12:19;18.33;;;10.77;;
19127;SDS011;9696;53.686;10.094;2022-08-20T02:14:50;14.68;;;10.50;;
19127;SDS011;9696;53.686;10.094;2022-08-20T02:17:20;15.75;;;9.95;;
19127;SDS011;9696;53.686;10.094;2022-08-20T02:19:53;15.80;;;10.00;;
19127;SDS011;9696;53.686;10.094;2022-08-20T02:22:26;15.68;;;9.30;;
19127;SDS011;9696;53.686;10.094;2022-08-20T02:25:03;15.18;;;10.50;;
19127;SDS011;9696;53.686;10.094;2022-08-20T02:27:36;14.13;;;9.57;;
19127;SDS011;9696;53.686;10.094;2022-08-20T02:30:11;14.43;;;9.55;;
19127;SDS011;9696;53.686;10.094;2022-08-20T02:32:54;14.77;;;9.77;;
19127;SDS011;9696;53.686;10.094;2022-08-20T02:35:24;13.75;;;9.43;;
19127;SDS011;9696;53.686;10.094;2022-08-20T02:37:54;15.30;;;9.85;;
19127;SDS011;9696;53.686;10.094;2022-08-20T02:40:25;14.82;;;9.65;;
19127;SDS011;9696;53.686;10.094;2022-08-20T02:42:59;13.65;;;9.40;;
19127;SDS011;9696;53.686;10.094;2022-08-20T02:45:29;13.18;;;8.90;;
19127;SDS011;9696;53.686;10.094;2022-08-20T02:48:03;14.85;;;9.80;;
19127;SDS011;9696;53.686;10.094;2022-08-20T02:50:33;13.93;;;8.10;;
19127;SDS011;9696;53.686;10.094;2022-08-20T02:53:02;14.18;;;8.48;;
19127;SDS011;9696;53.686;10.094;2022-08-20T02:55:31;13.23;;;8.30;;
19127;SDS011;9696;53.686;10.094;2022-08-20T02:58:01;14.43;;;8.30;;
19127;SDS011;9696;53.686;10.094;2022-08-20T03:00:31;18.13;;;9.52;;
19127;SDS011;9696;53.686;10.094;2022-08-20T03:03:04;17.38;;;8.82;;
19127;SDS011;9696;53.686;10.094;2022-08-20T03:05:37;12.88;;;8.85;;
19127;SDS011;9696;53.686;10.094;2022-08-20T03:08:07;13.25;;;8.65;;
19127;SDS011;9696;53.686;10.094;2022-08-20T03:10:38;11.13;;;8.18;;
19127;SDS011;9696;53.686;10.094;2022-08-20T03:13:11;12.23;;;8.02;;
19127;SDS011;9696;53.686;10.094;2022-08-20T03:15:43;16.00;;;8.23;;
19127;SDS011;9696;53.686;10.094;2022-08-20T03:18:16;12.13;;;7.82;;
19127;SDS011;9696;53.686;10.094;2022-08-20T03:20:46;11.43;;;7.93;;
19127;SDS011;9696;53.686;10.094;2022-08-20T03:23:18;15.75;;;8.43;;
19127;SDS011;9696;53.686;10.094;2022-08-20T03:25:48;10.95;;;7.32;;
19127;SDS011;9696;53.686;10.094;2022-08-20T03:28:18;12.88;;;8.50;;
19127;SDS011;9696;53.686;10.094;2022-08-20T03:30:48;14.75;;;8.35;;
19127;SDS011;9696;53.686;10.094;2022-08-20T03:33:19;18.67;;;8.43;;
19127;SDS011;9696;53.686;10.094;2022-08-20T03:35:50;13.95;;;8.10;;
19127;SDS011;9696;53.686;10.094;2022-08-20T03:38:20;14.52;;;8.43;;
19127;SDS011;9696;53.686;10.094;2022-08-20T03:40:59;13.80;;;7.85;;
19127;SDS011;9696;53.686;10.094;2022-08-20T03:43:31;11.35;;;8.48;;
19127;SDS011;9696;53.686;10.094;2022-08-20T03:46:01;16.85;;;8.73;;
19127;SDS011;9696;53.686;10.094;2022-08-20T03:48:48;12.60;;;8.45;;
19127;SDS011;9696;53.686;10.094;2022-08-20T03:51:27;12.25;;;8.20;;
19127;SDS011;9696;53.686;10.094;2022-08-20T03:53:57;13.65;;;8.43;;
19127;SDS011;9696;53.686;10.094;2022-08-20T03:56:26;15.80;;;8.88;;
19127;SDS011;9696;53.686;10.094;2022-08-20T03:58:57;14.35;;;8.65;;
19127;SDS011;9696;53.686;10.094;2022-08-20T04:01:26;13.23;;;8.30;;
19127;SDS011;9696;53.686;10.094;2022-08-20T04:04:11;14.57;;;8.75;;
19127;SDS011;9696;53.686;10.094;2022-08-20T04:06:41;11.25;;;8.32;;
19127;SDS011;9696;53.686;10.094;2022-08-20T04:09:13;18.35;;;8.88;;
19127;SDS011;9696;53.686;10.094;2022-08-20T04:11:42;13.60;;;7.90;;
19127;SDS011;9696;53.686;10.094;2022-08-20T04:14:13;14.93;;;9.27;;
19127;SDS011;9696;53.686;10.094;2022-08-20T04:16:45;19.48;;;8.25;;
19127;SDS011;9696;53.686;10.094;2022-08-20T04:19:15;13.23;;;8.45;;
19127;SDS011;9696;53.686;10.094;2022-08-20T04:21:44;14.80;;;8.98;;
19127;SDS011;9696;53.686;10.094;2022-08-20T04:24:14;12.98;;;8.38;;
19127;SDS011;9696;53.686;10.094;2022-08-20T04:26:58;12.15;;;8.55;;
19127;SDS011;9696;53.686;10.094;2022-08-20T04:29:30;12.82;;;8.13;;
19127;SDS011;9696;53.686;10.094;2022-08-20T04:32:02;12.02;;;7.25;;
19127;SDS011;9696;53.686;10.094;2022-08-20T04:34:32;11.63;;;7.10;;
19127;SDS011;9696;53.686;10.094;2022-08-20T04:37:02;13.05;;;7.60;;
19127;SDS011;9696;53.686;10.094;2022-08-20T04:39:43;11.93;;;7.55;;
19127;SDS011;9696;53.686;10.094;2022-08-20T04:42:33;13.05;;;6.80;;
19127;SDS011;9696;53.686;10.094;2022-08-20T04:45:07;14.50;;;7.82;;
19127;SDS011;9696;53.686;10.094;2022-08-20T04:47:36;13.90;;;7.40;;
19127;SDS011;9696;53.686;10.094;2022-08-20T04:50:06;12.63;;;7.70;;
19127;SDS011;9696;53.686;10.094;2022-08-20T04:52:36;12.25;;;7.05;;
19127;SDS011;9696;53.686;10.094;2022-08-20T04:55:07;12.90;;;7.93;;
19127;SDS011;9696;53.686;10.094;2022-08-20T04:57:37;12.55;;;7.35;;
19127;SDS011;9696;53.686;10.094;2022-08-20T05:00:09;16.70;;;9.57;;
19127;SDS011;9696;53.686;10.094;2022-08-20T05:02:41;14.13;;;8.25;;
19127;SDS011;9696;53.686;10.094;2022-08-20T05:05:10;15.55;;;7.72;;
19127;SDS011;9696;53.686;10.094;2022-08-20T05:07:40;22.88;;;8.20;;
19127;SDS011;9696;53.686;10.094;2022-08-20T05:10:12;13.80;;;7.03;;
19127;SDS011;9696;53.686;10.094;2022-08-20T05:12:43;29.15;;;17.90;;
19127;SDS011;9696;53.686;10.094;2022-08-20T05:15:24;24.30;;;14.63;;
19127;SDS011;9696;53.686;10.094;2022-08-20T05:17:54;19.58;;;8.95;;
19127;SDS011;9696;53.686;10.094;2022-08-20T05:20:26;19.27;;;10.63;;
19127;SDS011;9696;53.686;10.094;2022-08-20T05:22:58;12.25;;;8.02;;
19127;SDS011;9696;53.686;10.094;2022-08-20T05:25:29;15.20;;;7.22;;
19127;SDS011;9696;53.686;10.094;2022-08-20T05:27:59;10.82;;;7.50;;
19127;SDS011;9696;53.686;10.094;2022-08-20T05:30:33;14.00;;;7.90;;
19127;SDS011;9696;53.686;10.094;2022-08-20T05:33:04;12.23;;;7.53;;
19127;SDS011;9696;53.686;10.094;2022-08-20T05:35:35;15.50;;;7.20;;
19127;SDS011;9696;53.686;10.094;2022-08-20T05:38:06;13.88;;;8.18;;
19127;SDS011;9696;53.686;10.094;2022-08-20T05:40:37;15.02;;;8.63;;
19127;SDS011;9696;53.686;10.094;2022-08-20T05:43:07;12.70;;;8.10;;
19127;SDS011;9696;53.686;10.094;2022-08-20T05:45:39;15.05;;;8.00;;
19127;SDS011;9696;53.686;10.094;2022-08-20T05:48:10;18.20;;;8.20;;
19127;SDS011;9696;53.686;10.094;2022-08-20T05:50:42;16.00;;;8.63;;
19127;SDS011;9696;53.686;10.094;2022-08-20T05:53:15;14.55;;;8.52;;
19127;SDS011;9696;53.686;10.094;2022-08-20T05:55:45;14.15;;;8.13;;
19127;SDS011;9696;53.686;10.094;2022-08-20T05:58:16;15.82;;;8.25;;
19127;SDS011;9696;53.686;10.094;2022-08-20T06:00:49;13.55;;;8.52;;
19127;SDS011;9696;53.686;10.094;2022-08-20T06:03:20;11.82;;;7.80;;
19127;SDS011;9696;53.686;10.094;2022-08-20T06:06:07;17.40;;;8.35;;
19127;SDS011;9696;53.686;10.094;2022-08-20T06:08:56;14.27;;;7.50;;
19127;SDS011;9696;53.686;10.094;2022-08-20T06:11:25;15.40;;;7.80;;
19127;SDS011;9696;53.686;10.094;2022-08-20T06:14:00;12.50;;;8.32;;
19127;SDS011;9696;53.686;10.094;2022-08-20T06:16:31;22.42;;;8.75;;
19127;SDS011;9696;53.686;10.094;2022-08-20T06:19:03;13.18;;;8.75;;
19127;SDS011;9696;53.686;10.094;2022-08-20T06:21:37;14.68;;;7.93;;
19127;SDS011;9696;53.686;10.094;2022-08-20T06:24:07;14.25;;;7.97;;
19127;SDS011;9696;53.686;10.094;2022-08-20T06:26:36;13.20;;;8.40;;
19127;SDS011;9696;53.686;10.094;2022-08-20T06:29:05;17.60;;;8.30;;
19127;SDS011;9696;53.686;10.094;2022-08-20T06:31:36;18.33;;;8.25;;
19127;SDS011;9696;53.686;10.094;2022-08-20T06:34:05;13.73;;;7.93;;
19127;SDS011;9696;53.686;10.094;2022-08-20T06:36:34;17.65;;;8.60;;
19127;SDS011;9696;53.686;10.094;2022-08-20T06:39:04;13.63;;;8.25;;
19127;SDS011;9696;53.686;10.094;2022-08-20T06:41:33;16.30;;;8.98;;
19127;SDS011;9696;53.686;10.094;2022-08-20T06:44:03;21.88;;;9.93;;
19127;SDS011;9696;53.686;10.094;2022-08-20T06:46:33;14.45;;;8.90;;
19127;SDS011;9696;53.686;10.094;2022-08-20T06:49:05;14.18;;;8.88;;
19127;SDS011;9696;53.686;10.094;2022-08-20T06:51:35;12.00;;;8.65;;
19127;SDS011;9696;53.686;10.094;2022-08-20T06:54:07;13.50;;;7.53;;
19127;SDS011;9696;53.686;10.094;2022-08-20T06:56:36;12.50;;;8.40;;
19127;SDS011;9696;53.686;10.094;2022-08-20T06:59:05;13.52;;;7.40;;
19127;SDS011;9696;53.686;10.094;2022-08-20T07:01:36;12.90;;;7.60;;
19127;SDS011;9696;53.686;10.094;2022-08-20T07:04:05;14.75;;;6.97;;
19127;SDS011;9696;53.686;10.094;2022-08-20T07:06:34;14.68;;;8.00;;
19127;SDS011;9696;53.686;10.094;2022-08-20T07:09:03;10.90;;;5.78;;
19127;SDS011;9696;53.686;10.094;2022-08-20T07:11:32;10.13;;;5.72;;
19127;SDS011;9696;53.686;10.094;2022-08-20T07:14:02;6.93;;;5.40;;
19127;SDS011;9696;53.686;10.094;2022-08-20T07:16:31;9.10;;;5.32;;
19127;SDS011;9696;53.686;10.094;2022-08-20T07:19:02;6.20;;;4.03;;
19127;SDS011;9696;53.686;10.094;2022-08-20T07:21:31;8.07;;;4.75;;
19127;SDS011;9696;53.686;10.094;2022-08-20T07:24:00;7.30;;;4.35;;
19127;SDS011;9696;53.686;10.094;2022-08-20T07:26:30;4.95;;;3.88;;
19127;SDS011;9696;53.686;10.094;2022-08-20T07:29:00;4.78;;;2.65;;
19127;SDS011;9696;53.686;10.094;2022-08-20T07:31:29;6.65;;;2.78;;
19127;SDS011;9696;53.686;10.094;2022-08-20T07:34:17;6.95;;;2.90;;
19127;SDS011;9696;53.686;10.094;2022-08-20T07:36:46;6.00;;;2.60;;
19127;SDS011;9696;53.686;10.094;2022-08-20T07:39:16;6.43;;;2.50;;
19127;SDS011;9696;53.686;10.094;2022-08-20T07:41:46;5.43;;;2.67;;
19127;SDS011;9696;53.686;10.094;2022-08-20T07:44:29;7.05;;;3.00;;
19127;SDS011;9696;53.686;10.094;2022-08-20T07:46:58;5.28;;;2.40;;
19127;SDS011;9696;53.686;10.094;2022-08-20T07:49:30;4.75;;;2.38;;
19127;SDS011;9696;53.686;10.094;2022-08-20T07:51:59;4.25;;;1.90;;
19127;SDS011;9696;53.686;10.094;2022-08-20T07:54:28;6.13;;;1.80;;
19127;SDS011;9696;53.686;10.094;2022-08-20T07:56:59;3.38;;;1.60;;
19127;SDS011;9696;53.686;10.094;2022-08-20T07:59:29;4.82;;;1.70;;
19127;SDS011;9696;53.686;10.094;2022-08-20T08:01:58;4.88;;;1.60;;
19127;SDS011;9696;53.686;10.094;2022-08-20T08:04:27;8.88;;;1.52;;
19127;SDS011;9696;53.686;10.094;2022-08-20T08:06:58;3.22;;;1.80;;
19127;SDS011;9696;53.686;10.094;2022-08-20T08:09:28;4.10;;;1.60;;
19127;SDS011;9696;53.686;10.094;2022-08-20T08:11:58;10.40;;;1.70;;
19127;SDS011;9696;53.686;10.094;2022-08-20T08:14:30;4.70;;;1.70;;
19127;SDS011;9696;53.686;10.094;2022-08-20T08:17:02;3.88;;;1.50;;
19127;SDS011;9696;53.686;10.094;2022-08-20T08:19:35;4.30;;;1.20;;
19127;SDS011;9696;53.686;10.094;2022-08-20T08:22:09;1.50;;;0.90;;
19127;SDS011;9696;53.686;10.094;2022-08-20T08:24:39;3.13;;;1.35;;
19127;SDS011;9696;53.686;10.094;2022-08-20T08:27:23;2.03;;;1.02;;
19127;SDS011;9696;53.686;10.094;2022-08-20T08:29:52;4.45;;;1.63;;
19127;SDS011;9696;53.686;10.094;2022-08-20T08:32:22;4.72;;;1.17;;
19127;SDS011;9696;53.686;10.094;2022-08-20T08:34:52;6.47;;;1.30;;
19127;SDS011;9696;53.686;10.094;2022-08-20T08:37:22;6.28;;;1.10;;
19127;SDS011;9696;53.686;10.094;2022-08-20T08:39:56;3.05;;;1.08;;
19127;SDS011;9696;53.686;10.094;2022-08-20T08:42:27;4.38;;;1.30;;
19127;SDS011;9696;53.686;10.094;2022-08-20T08:45:09;3.05;;;1.10;;
19127;SDS011;9696;53.686;10.094;2022-08-20T08:47:44;2.58;;;1.08;;
19127;SDS011;9696;53.686;10.094;2022-08-20T08:50:23;7.53;;;1.83;;
19127;SDS011;9696;53.686;10.094;2022-08-20T08:53:16;4.07;;;1.52;;
19127;SDS011;9696;53.686;10.094;2022-08-20T08:55:48;4.13;;;1.30;;
19127;SDS011;9696;53.686;10.094;2022-08-20T08:58:18;5.05;;;1.30;;
19127;SDS011;9696;53.686;10.094;2022-08-20T09:00:47;3.20;;;1.20;;
19127;SDS011;9696;53.686;10.094;2022-08-20T09:03:25;6.72;;;1.10;;
19127;SDS011;9696;53.686;10.094;2022-08-20T09:05:59;3.25;;;1.13;;
19127;SDS011;9696;53.686;10.094;2022-08-20T09:08:30;3.25;;;0.85;;
19127;SDS011;9696;53.686;10.094;2022-08-20T09:11:07;2.30;;;0.68;;
19127;SDS011;9696;53.686;10.094;2022-08-20T09:13:39;5.70;;;0.90;;
19127;SDS011;9696;53.686;10.094;2022-08-20T09:16:12;6.22;;;0.68;;
19127;SDS011;9696;53.686;10.094;2022-08-20T09:18:41;2.83;;;0.70;;
19127;SDS011;9696;53.686;10.094;2022-08-20T09:21:12;7.90;;;1.00;;
19127;SDS011;9696;53.686;10.094;2022-08-20T09:23:42;3.30;;;0.90;;
19127;SDS011;9696;53.686;10.094;2022-08-20T09:26:11;11.05;;;1.00;;
19127;SDS011;9696;53.686;10.094;2022-08-20T09:28:45;2.50;;;0.63;;
19127;SDS011;9696;53.686;10.094;2022-08-20T09:31:18;10.23;;;1.35;;
19127;SDS011;9696;53.686;10.094;2022-08-20T09:33:50;1.80;;;0.75;;
19127;SDS011;9696;53.686;10.094;2022-08-20T09:36:20;6.47;;;1.30;;
19127;SDS011;9696;53.686;10.094;2022-08-20T09:38:59;5.10;;;0.90;;
19127;SDS011;9696;53.686;10.094;2022-08-20T09:41:30;6.82;;;1.30;;
19127;SDS011;9696;53.686;10.094;2022-08-20T09:44:00;3.92;;;0.90;;
19127;SDS011;9696;53.686;10.094;2022-08-20T09:46:29;3.97;;;1.02;;
19127;SDS011;9696;53.686;10.094;2022-08-20T09:48:59;16.25;;;1.10;;
19127;SDS011;9696;53.686;10.094;2022-08-20T09:51:29;5.28;;;0.88;;
19127;SDS011;9696;53.686;10.094;2022-08-20T09:54:01;6.05;;;1.00;;
19127;SDS011;9696;53.686;10.094;2022-08-20T09:56:30;7.45;;;1.35;;
19127;SDS011;9696;53.686;10.094;2022-08-20T09:59:02;6.85;;;1.10;;
19127;SDS011;9696;53.686;10.094;2022-08-20T10:01:31;7.13;;;1.10;;
19127;SDS011;9696;53.686;10.094;2022-08-20T10:04:01;5.55;;;1.10;;
19127;SDS011;9696;53.686;10.094;2022-08-20T10:06:32;4.47;;;1.10;;
19127;SDS011;9696;53.686;10.094;2022-08-20T10:09:07;11.13;;;1.30;;
19127;SDS011;9696;53.686;10.094;2022-08-20T10:11:36;12.20;;;1.73;;
19127;SDS011;9696;53.686;10.094;2022-08-20T10:14:05;13.48;;;1.50;;
19127;SDS011;9696;53.686;10.094;2022-08-20T10:16:36;6.40;;;1.40;;
19127;SDS011;9696;53.686;10.094;2022-08-20T10:19:05;7.65;;;1.30;;
19127;SDS011;9696;53.686;10.094;2022-08-20T10:21:35;6.38;;;0.93;;
19127;SDS011;9696;53.686;10.094;2022-08-20T10:24:05;5.72;;;1.25;;
19127;SDS011;9696;53.686;10.094;2022-08-20T10:26:36;4.43;;;1.05;;
19127;SDS011;9696;53.686;10.094;2022-08-20T10:29:05;4.10;;;0.98;;
19127;SDS011;9696;53.686;10.094;2022-08-20T10:31:34;8.38;;;1.30;;
19127;SDS011;9696;53.686;10.094;2022-08-20T10:34:03;7.22;;;0.93;;
19127;SDS011;9696;53.686;10.094;2022-08-20T10:36:33;3.90;;;1.05;;
19127;SDS011;9696;53.686;10.094;2022-08-20T10:39:03;4.50;;;0.90;;
19127;SDS011;9696;53.686;10.094;2022-08-20T10:41:33;4.68;;;1.13;;
19127;SDS011;9696;53.686;10.094;2022-08-20T10:44:05;2.72;;;1.10;;
19127;SDS011;9696;53.686;10.094;2022-08-20T10:46:34;6.03;;;0.90;;
19127;SDS011;9696;53.686;10.094;2022-08-20T10:49:03;13.88;;;1.30;;
19127;SDS011;9696;53.686;10.094;2022-08-20T10:51:32;4.07;;;1.23;;
19127;SDS011;9696;53.686;10.094;2022-08-20T10:54:03;4.90;;;1.48;;
19127;SDS011;9696;53.686;10.094;2022-08-20T10:56:38;10.50;;;1.30;;
19127;SDS011;9696;53.686;10.094;2022-08-20T10:59:07;5.18;;;1.02;;
19127;SDS011;9696;53.686;10.094;2022-08-20T11:01:37;5.57;;;1.25;;
19127;SDS011;9696;53.686;10.094;2022-08-20T11:04:07;8.85;;;1.30;;
19127;SDS011;9696;53.686;10.094;2022-08-20T11:06:36;14.15;;;1.80;;
19127;SDS011;9696;53.686;10.094;2022-08-20T11:09:06;8.50;;;1.40;;
19127;SDS011;9696;53.686;10.094;2022-08-20T11:11:36;7.93;;;1.42;;
19127;SDS011;9696;53.686;10.094;2022-08-20T11:14:05;8.30;;;1.20;;
19127;SDS011;9696;53.686;10.094;2022-08-20T11:16:36;7.50;;;1.20;;
19127;SDS011;9696;53.686;10.094;2022-08-20T11:19:05;3.97;;;1.10;;
19127;SDS011;9696;53.686;10.094;2022-08-20T11:21:34;8.68;;;1.48;;
19127;SDS011;9696;53.686;10.094;2022-08-20T11:24:03;4.18;;;1.00;;
19127;SDS011;9696;53.686;10.094;2022-08-20T11:26:34;3.20;;;1.02;;
19127;SDS011;9696;53.686;10.094;2022-08-20T11:29:03;7.07;;;0.90;;
19127;SDS011;9696;53.686;10.094;2022-08-20T11:31:34;6.65;;;1.00;;
19127;SDS011;9696;53.686;10.094;2022-08-20T11:34:03;5.70;;;1.20;;
19127;SDS011;9696;53.686;10.094;2022-08-20T11:36:38;3.85;;;1.00;;
19127;SDS011;9696;53.686;10.094;2022-08-20T11:39:08;8.48;;;1.20;;
19127;SDS011;9696;53.686;10.094;2022-08-20T11:41:39;8.48;;;1.20;;
19127;SDS011;9696;53.686;10.094;2022-08-20T11:44:11;4.15;;;0.95;;
19127;SDS011;9696;53.686;10.094;2022-08-20T11:46:47;7.40;;;1.15;;
19127;SDS011;9696;53.686;10.094;2022-08-20T11:49:16;6.95;;;1.25;;
19127;SDS011;9696;53.686;10.094;2022-08-20T11:51:45;3.78;;;0.77;;
19127;SDS011;9696;53.686;10.094;2022-08-20T11:54:16;3.63;;;1.02;;
19127;SDS011;9696;53.686;10.094;2022-08-20T11:56:48;5.53;;;1.50;;
19127;SDS011;9696;53.686;10.094;2022-08-20T11:59:17;3.30;;;0.90;;
19127;SDS011;9696;53.686;10.094;2022-08-20T12:01:46;5.38;;;1.05;;
19127;SDS011;9696;53.686;10.094;2022-08-20T12:04:29;4.10;;;0.90;;
19127;SDS011;9696;53.686;10.094;2022-08-20T12:07:06;6.63;;;1.63;;
19127;SDS011;9696;53.686;10.094;2022-08-20T12:09:36;7.45;;;1.55;;
19127;SDS011;9696;53.686;10.094;2022-08-20T12:12:18;5.18;;;0.88;;
19127;SDS011;9696;53.686;10.094;2022-08-20T12:14:50;6.95;;;0.73;;
19127;SDS011;9696;53.686;10.094;2022-08-20T12:17:22;5.60;;;1.13;;
19127;SDS011;9696;53.686;10.094;2022-08-20T12:19:53;17.92;;;0.90;;
19127;SDS011;9696;53.686;10.094;2022-08-20T12:22:24;4.32;;;0.80;;
19127;SDS011;9696;53.686;10.094;2022-08-20T12:24:54;2.92;;;0.63;;
19127;SDS011;9696;53.686;10.094;2022-08-20T12:27:25;4.45;;;0.65;;
19127;SDS011;9696;53.686;10.094;2022-08-20T12:29:56;3.63;;;0.82;;
19127;SDS011;9696;53.686;10.094;2022-08-20T12:32:27;4.63;;;0.80;;
19127;SDS011;9696;53.686;10.094;2022-08-20T12:34:58;6.90;;;0.98;;
19127;SDS011;9696;53.686;10.094;2022-08-20T12:37:28;2.22;;;0.70;;
19127;SDS011;9696;53.686;10.094;2022-08-20T12:39:59;4.90;;;0.75;;
19127;SDS011;9696;53.686;10.094;2022-08-20T12:42:32;4.70;;;0.90;;
19127;SDS011;9696;53.686;10.094;2022-08-20T12:45:01;2.78;;;1.10;;
19127;SDS011;9696;53.686;10.094;2022-08-20T12:47:32;4.35;;;0.90;;
19127;SDS011;9696;53.686;10.094;2022-08-20T12:50:04;7.70;;;1.40;;
19127;SDS011;9696;53.686;10.094;2022-08-20T12:52:35;8.73;;;0.85;;
19127;SDS011;9696;53.686;10.094;2022-08-20T12:55:04;6.35;;;0.85;;
19127;SDS011;9696;53.686;10.094;2022-08-20T12:57:38;2.85;;;0.60;;
19127;SDS011;9696;53.686;10.094;2022-08-20T13:00:11;4.30;;;0.70;;
19127;SDS011;9696;53.686;10.094;2022-08-20T13:02:42;3.90;;;0.73;;
19127;SDS011;9696;53.686;10.094;2022-08-20T13:05:11;5.35;;;0.70;;
19127;SDS011;9696;53.686;10.094;2022-08-20T13:07:41;4.65;;;0.75;;
19127;SDS011;9696;53.686;10.094;2022-08-20T13:10:15;7.25;;;1.02;;
19127;SDS011;9696;53.686;10.094;2022-08-20T13:12:47;11.45;;;0.85;;
19127;SDS011;9696;53.686;10.094;2022-08-20T13:15:16;3.30;;;0.73;;
19127;SDS011;9696;53.686;10.094;2022-08-20T13:17:49;4.90;;;0.90;;
19127;SDS011;9696;53.686;10.094;2022-08-20T13:20:18;6.80;;;0.93;;
19127;SDS011;9696;53.686;10.094;2022-08-20T13:22:52;4.45;;;0.80;;
19127;SDS011;9696;53.686;10.094;2022-08-20T13:25:22;7.78;;;0.70;;
19127;SDS011;9696;53.686;10.094;2022-08-20T13:27:55;1.63;;;0.38;;
19127;SDS011;9696;53.686;10.094;2022-08-20T13:30:30;3.03;;;0.55;;
19127;SDS011;9696;53.686;10.094;2022-08-20T13:33:00;5.55;;;0.82;;
19127;SDS011;9696;53.686;10.094;2022-08-20T13:35:29;6.20;;;0.82;;
19127;SDS011;9696;53.686;10.094;2022-08-20T13:37:58;3.35;;;0.75;;
19127;SDS011;9696;53.686;10.094;2022-08-20T13:40:27;4.07;;;0.70;;
19127;SDS011;9696;53.686;10.094;2022-08-20T13:42:58;3.53;;;0.77;;
19127;SDS011;9696;53.686;10.094;2022-08-20T13:45:32;3.40;;;0.77;;
19127;SDS011;9696;53.686;10.094;2022-08-20T13:48:02;9.70;;;0.75;;
19127;SDS011;9696;53.686;10.094;2022-08-20T13:50:41;3.25;;;0.82;;
19127;SDS011;9696;53.686;10.094;2022-08-20T13:53:13;3.50;;;0.70;;
19127;SDS011;9696;53.686;10.094;2022-08-20T13:55:44;6.88;;;0.60;;
19127;SDS011;9696;53.686;10.094;2022-08-20T13:58:14;5.47;;;0.70;;
19127;SDS011;9696;53.686;10.094;2022-08-20T14:00:44;4.55;;;0.88;;
19127;SDS011;9696;53.686;10.094;2022-08-20T14:03:13;4.22;;;0.70;;
19127;SDS011;9696;53.686;10.094;2022-08-20T14:05:50;5.72;;;0.90;;
19127;SDS011;9696;53.686;10.094;2022-08-20T14:08:20;2.38;;;0.57;;
19127;SDS011;9696;53.686;10.094;2022-08-20T14:10:50;4.75;;;0.65;;
19127;SDS011;9696;53.686;10.094;2022-08-20T14:13:22;7.82;;;1.15;;
19127;SDS011;9696;53.686;10.094;2022-08-20T14:15:52;4.47;;;0.68;;
19127;SDS011;9696;53.686;10.094;2022-08-20T14:18:22;1.80;;;0.57;;
19127;SDS011;9696;53.686;10.094;2022-08-20T14:20:51;3.72;;;0.52;;
19127;SDS011;9696;53.686;10.094;2022-08-20T14:23:20;3.50;;;0.77;;
19127;SDS011;9696;53.686;10.094;2022-08-20T14:25:50;2.65;;;0.82;;
19127;SDS011;9696;53.686;10.094;2022-08-20T14:28:20;1.38;;;0.50;;
19127;SDS011;9696;53.686;10.094;2022-08-20T14:30:51;2.58;;;0.60;;
19127;SDS011;9696;53.686;10.094;2022-08-20T14:33:21;1.92;;;0.73;;
19127;SDS011;9696;53.686;10.094;2022-08-20T14:35:50;2.63;;;0.60;;
19127;SDS011;9696;53.686;10.094;2022-08-20T14:38:20;1.95;;;0.47;;
19127;SDS011;9696;53.686;10.094;2022-08-20T14:40:49;12.48;;;0.82;;
19127;SDS011;9696;53.686;10.094;2022-08-20T14:43:18;4.00;;;0.80;;
19127;SDS011;9696;53.686;10.094;2022-08-20T14:45:49;4.30;;;0.52;;
19127;SDS011;9696;53.686;10.094;2022-08-20T14:48:18;6.32;;;0.82;;
19127;SDS011;9696;53.686;10.094;2022-08-20T14:50:50;8.98;;;0.60;;
19127;SDS011;9696;53.686;10.094;2022-08-20T14:53:21;3.78;;;0.50;;
19127;SDS011;9696;53.686;10.094;2022-08-20T14:55:50;2.63;;;0.70;;
19127;SDS011;9696;53.686;10.094;2022-08-20T14:58:19;3.65;;;0.75;;
19127;SDS011;9696;53.686;10.094;2022-08-20T15:00:51;4.75;;;0.73;;
19127;SDS011;9696;53.686;10.094;2022-08-20T15:03:20;2.45;;;0.70;;